createdAt,value
2023-03-30T00:05:23.862Z,2.22
2023-03-30T00:07:58.421Z,1.88
2023-03-30T00:10:27.185Z,2.10
2023-03-30T00:12:54.307Z,2.00
2023-03-30T00:15:29.224Z,2.17
2023-03-30T00:17:56.488Z,1.90
2023-03-30T00:20:30.502Z,1.90
2023-03-30T00:22:57.692Z,1.45
2023-03-30T00:25:38.223Z,2.00
2023-03-30T00:28:12.195Z,1.85
2023-03-30T00:30:46.607Z,2.33
2023-03-30T00:33:41.464Z,2.28
2023-03-30T00:36:12.698Z,1.77
2023-03-30T00:38:47.135Z,2.30
2023-03-30T00:41:14.375Z,2.20
2023-03-30T00:44:07.292Z,1.83
2023-03-30T00:46:34.682Z,1.90
2023-03-30T00:51:40.201Z,1.70
2023-03-30T00:54:09.616Z,2.00
2023-03-30T00:56:43.381Z,2.35
2023-03-30T00:59:10.856Z,2.38
2023-03-30T01:04:14.698Z,2.03
2023-03-30T01:06:43.437Z,1.50
2023-03-30T01:09:17.423Z,1.80
2023-03-30T01:11:44.801Z,2.20
2023-03-30T01:14:19.511Z,2.15
2023-03-30T01:17:01.813Z,2.17
2023-03-30T01:19:58.224Z,2.20
2023-03-30T01:22:31.376Z,1.60
2023-03-30T01:25:21.216Z,2.40
2023-03-30T01:28:07.260Z,2.50
2023-03-30T01:30:48.258Z,2.40
2023-03-30T01:33:15.653Z,2.40
2023-03-30T01:35:59.404Z,2.38
2023-03-30T01:38:45.281Z,2.03
2023-03-30T01:41:20.238Z,2.63
2023-03-30T01:44:01.305Z,2.17
2023-03-30T01:46:37.487Z,2.47
2023-03-30T01:49:23.197Z,2.55
2023-03-30T01:51:59.066Z,2.50
2023-03-30T01:54:41.141Z,2.38
2023-03-30T01:57:14.406Z,2.38
2023-03-30T01:59:53.305Z,2.65
2023-03-30T02:02:22.192Z,2.80
2023-03-30T02:04:49.681Z,2.92
2023-03-30T02:09:51.992Z,1.38
2023-03-30T02:12:27.223Z,2.60
2023-03-30T02:15:01.164Z,2.50
2023-03-30T02:17:36.277Z,3.20
2023-03-30T02:20:11.307Z,2.55
2023-03-30T02:22:38.624Z,2.55
2023-03-30T02:25:06.522Z,2.58
2023-03-30T02:27:41.273Z,2.60
2023-03-30T02:30:15.221Z,2.22
2023-03-30T02:33:08.314Z,2.72
2023-03-30T02:35:44.692Z,3.00
2023-03-30T02:38:37.247Z,2.58
2023-03-30T02:41:04.568Z,2.83
2023-03-30T02:46:17.395Z,3.20
2023-03-30T02:48:47.755Z,2.70
2023-03-30T02:51:40.237Z,2.95
2023-03-30T02:54:23.640Z,2.47
2023-03-30T02:57:04.370Z,2.97
2023-03-30T02:59:34.947Z,2.67
2023-03-30T03:02:12.257Z,2.97
2023-03-30T03:04:43.429Z,2.72
2023-03-30T03:07:19.310Z,3.22
2023-03-30T03:09:48.930Z,2.55
2023-03-30T03:12:23.281Z,2.97
2023-03-30T03:14:50.571Z,3.05
2023-03-30T03:17:22.515Z,2.75
2023-03-30T03:20:02.313Z,3.17
2023-03-30T03:22:29.546Z,3.00
2023-03-30T03:25:03.287Z,2.63
2023-03-30T03:27:30.888Z,3.40
2023-03-30T03:30:18.234Z,3.20
2023-03-30T03:32:52.195Z,2.42
2023-03-30T03:35:19.457Z,3.20
2023-03-30T03:37:53.299Z,3.00
2023-03-30T03:40:20.491Z,3.10
2023-03-30T03:42:48.387Z,2.72
2023-03-30T03:45:22.221Z,3.15
2023-03-30T03:47:51.510Z,3.55
2023-03-30T03:50:25.342Z,3.58
2023-03-30T03:52:52.596Z,2.50
2023-03-30T03:55:26.265Z,3.70
2023-03-30T03:57:53.421Z,3.38
2023-03-30T04:00:20.902Z,3.50
2023-03-30T04:05:21.549Z,3.15
2023-03-30T04:08:00.652Z,3.50
2023-03-30T04:10:27.943Z,3.28
2023-03-30T04:12:58.528Z,2.92
2023-03-30T04:15:32.402Z,3.42
2023-03-30T04:17:59.779Z,3.60
2023-03-30T04:23:01.251Z,3.42
2023-03-30T04:25:29.112Z,3.00
2023-03-30T04:28:03.388Z,3.80
2023-03-30T04:30:37.149Z,3.47
2023-03-30T04:33:11.299Z,3.30
2023-03-30T04:35:45.331Z,3.40
2023-03-30T04:38:14.157Z,3.50
2023-03-30T04:40:41.400Z,3.03
2023-03-30T04:43:16.266Z,3.53
2023-03-30T04:45:43.834Z,3.67
2023-03-30T04:48:17.368Z,3.70
2023-03-30T04:50:51.688Z,3.60
2023-03-30T04:53:26.304Z,3.05
2023-03-30T04:55:53.440Z,3.33
2023-03-30T04:58:20.540Z,3.30
2023-03-30T05:00:54.546Z,3.60
2023-03-30T05:03:23.412Z,3.35
2023-03-30T05:05:57.426Z,3.78
2023-03-30T05:08:24.734Z,3.20
2023-03-30T05:10:51.976Z,3.40
2023-03-30T05:13:25.266Z,3.17
2023-03-30T05:15:55.840Z,3.20
2023-03-30T05:18:29.734Z,2.90
2023-03-30T05:20:58.474Z,2.95
2023-03-30T05:23:26.091Z,2.70
2023-03-30T05:26:01.392Z,2.92
2023-03-30T05:28:35.297Z,2.75
2023-03-30T05:31:16.407Z,2.75
2023-03-30T05:33:44.017Z,2.40
2023-03-30T05:36:18.452Z,2.65
2023-03-30T05:38:48.386Z,2.78
2023-03-30T05:41:15.631Z,2.70
2023-03-30T05:43:49.288Z,3.03
2023-03-30T05:46:23.358Z,2.05
2023-03-30T05:48:57.383Z,2.50
2023-03-30T05:51:24.613Z,2.20
2023-03-30T05:53:52.197Z,2.30
2023-03-30T05:56:26.301Z,2.40
2023-03-30T05:58:53.509Z,2.45
2023-03-30T06:01:28.427Z,2.40
2023-03-30T06:03:56.081Z,2.15
2023-03-30T06:06:23.594Z,2.10
2023-03-30T06:08:58.265Z,1.85
2023-03-30T06:11:25.671Z,2.25
2023-03-30T06:13:59.901Z,2.20
2023-03-30T06:16:29.064Z,2.00
2023-03-30T06:18:56.240Z,1.75
2023-03-30T06:21:30.321Z,1.70
2023-03-30T06:23:57.503Z,1.65
2023-03-30T06:26:31.426Z,1.52
2023-03-30T06:29:12.302Z,1.25
2023-03-30T06:31:46.426Z,1.70
2023-03-30T06:34:13.616Z,1.70
2023-03-30T06:36:45.228Z,1.90
2023-03-30T06:39:19.372Z,1.98
2023-03-30T06:41:46.631Z,2.00
2023-03-30T06:44:21.444Z,1.52
2023-03-30T06:46:49.717Z,1.70
2023-03-30T06:49:16.878Z,1.33
2023-03-30T06:51:50.296Z,1.75
2023-03-30T06:54:20.173Z,1.42
2023-03-30T06:56:48.153Z,1.60
2023-03-30T06:59:22.263Z,1.60
2023-03-30T07:01:49.586Z,1.88
2023-03-30T07:04:23.498Z,1.77
2023-03-30T07:06:52.108Z,1.60
2023-03-30T07:09:19.211Z,1.83
2023-03-30T07:11:55.072Z,1.45
2023-03-30T07:14:23.407Z,1.33
2023-03-30T07:16:57.435Z,1.20
2023-03-30T07:19:24.646Z,1.15
2023-03-30T07:21:58.378Z,1.27
2023-03-30T07:24:25.777Z,1.50
2023-03-30T07:26:52.923Z,1.60
2023-03-30T07:29:26.386Z,1.65
2023-03-30T07:32:00.358Z,1.67
2023-03-30T07:34:34.487Z,1.90
2023-03-30T07:37:01.770Z,2.17
2023-03-30T07:39:30.103Z,1.40
2023-03-30T07:42:04.374Z,1.48
2023-03-30T07:44:31.629Z,1.70
2023-03-30T07:47:05.321Z,1.63
2023-03-30T07:49:32.576Z,1.77
2023-03-30T07:51:59.828Z,1.85
2023-03-30T07:54:33.299Z,1.30
2023-03-30T07:57:00.654Z,1.60
2023-03-30T07:59:34.320Z,1.80
2023-03-30T08:02:01.738Z,1.38
2023-03-30T08:04:28.991Z,1.38
2023-03-30T08:07:03.511Z,1.67
2023-03-30T08:09:31.081Z,2.00
2023-03-30T08:14:31.997Z,2.00
2023-03-30T08:16:59.167Z,1.40
2023-03-30T08:19:33.317Z,1.92
2023-03-30T08:22:01.998Z,1.83
2023-03-30T08:24:35.419Z,1.70
2023-03-30T08:27:02.708Z,1.70
2023-03-30T08:29:43.436Z,1.77
2023-03-30T08:32:17.540Z,2.70
2023-03-30T08:34:51.305Z,1.80
2023-03-30T08:37:26.218Z,1.95
2023-03-30T08:39:53.551Z,1.85
2023-03-30T08:42:30.222Z,2.13
2023-03-30T08:45:03.332Z,1.08
2023-03-30T08:47:41.234Z,1.90
2023-03-30T08:50:19.496Z,1.65
2023-03-30T08:52:53.286Z,2.08
2023-03-30T08:55:25.418Z,2.00
2023-03-30T08:58:04.258Z,1.73
2023-03-30T09:00:50.102Z,1.90
2023-03-30T09:03:27.353Z,1.65
2023-03-30T09:06:01.598Z,1.50
2023-03-30T09:08:36.664Z,1.52
2023-03-30T09:11:07.192Z,1.35
2023-03-30T09:13:44.278Z,2.70
2023-03-30T09:16:11.598Z,1.60
2023-03-30T09:18:40.223Z,1.83
2023-03-30T09:21:16.403Z,1.50
2023-03-30T09:23:44.196Z,2.00
2023-03-30T09:26:18.352Z,1.88
2023-03-30T09:28:53.527Z,1.52
2023-03-30T09:31:33.380Z,1.65
2023-03-30T09:34:07.881Z,1.60
2023-03-30T09:36:42.329Z,1.67
2023-03-30T09:39:18.367Z,1.70
2023-03-30T09:42:07.321Z,1.73
2023-03-30T09:44:37.095Z,1.65
2023-03-30T09:47:21.299Z,1.35
2023-03-30T09:49:48.632Z,1.35
2023-03-30T09:52:32.355Z,1.50
2023-03-30T09:55:03.583Z,1.40
2023-03-30T09:57:38.382Z,1.35
2023-03-30T10:00:22.662Z,1.67
2023-03-30T10:03:03.424Z,1.75
2023-03-30T10:05:31.866Z,1.50
2023-03-30T10:08:10.306Z,1.60
2023-03-30T10:10:40.090Z,1.30
2023-03-30T10:13:13.523Z,1.50
2023-03-30T10:15:44.155Z,1.80
2023-03-30T10:18:33.335Z,1.77
2023-03-30T10:21:05.114Z,1.40
2023-03-30T10:23:40.443Z,1.40
2023-03-30T10:26:13.234Z,1.30
2023-03-30T10:29:07.583Z,1.20
2023-03-30T10:31:46.206Z,1.63
2023-03-30T10:34:25.308Z,1.70
2023-03-30T10:36:54.923Z,1.65
2023-03-30T10:39:36.336Z,1.63
2023-03-30T10:42:05.608Z,1.48
2023-03-30T10:44:41.342Z,1.73
2023-03-30T10:47:11.555Z,1.50
2023-03-30T13:11:26.420Z,1.83
2023-03-30T13:14:15.418Z,1.48
2023-03-30T13:17:06.828Z,1.95
2023-03-30T13:19:40.342Z,2.15
2023-03-30T13:22:13.861Z,1.75
2023-03-30T13:25:07.417Z,1.67
2023-03-30T13:27:36.258Z,2.08
2023-03-30T13:30:16.302Z,1.80
2023-03-30T13:33:03.365Z,2.15
2023-03-30T13:35:46.273Z,2.50
2023-03-30T13:38:43.372Z,2.10
2023-03-30T13:41:28.967Z,2.40
2023-03-30T13:44:12.345Z,1.70
2023-03-30T13:46:47.187Z,2.00
2023-03-30T13:49:21.460Z,2.00
2023-03-30T13:51:48.789Z,2.20
2023-03-30T13:54:31.407Z,1.88
2023-03-30T13:57:17.467Z,2.00
2023-03-30T13:59:59.414Z,1.90
2023-03-30T14:02:28.715Z,1.95
2023-03-30T14:04:55.956Z,2.00
2023-03-30T14:07:30.401Z,1.98
2023-03-30T14:10:09.513Z,2.00
2023-03-30T14:12:50.349Z,1.83
2023-03-30T14:15:20.298Z,2.25
2023-03-30T14:18:05.511Z,1.73
2023-03-30T14:20:51.185Z,1.58
2023-03-30T14:23:26.342Z,1.67
2023-03-30T14:25:54.854Z,1.67
2023-03-30T14:28:29.388Z,2.10
2023-03-30T14:30:57.677Z,1.90
2023-03-30T14:33:31.903Z,1.63
2023-03-30T14:36:00.279Z,2.08
2023-03-30T14:38:36.683Z,1.52
2023-03-30T14:41:07.924Z,1.80
2023-03-30T14:43:49.860Z,1.80
2023-03-30T14:46:17.317Z,1.92
2023-03-30T14:51:34.903Z,1.50
2023-03-30T14:54:08.514Z,1.77
2023-03-30T14:56:36.301Z,1.75
2023-03-30T14:59:03.813Z,2.03
2023-03-30T15:04:11.115Z,1.80
2023-03-30T15:06:45.412Z,1.67
2023-03-30T15:09:17.130Z,1.65
2023-03-30T15:11:52.348Z,1.50
2023-03-30T15:14:28.333Z,1.50
2023-03-30T15:17:03.484Z,1.55
2023-03-30T15:19:31.919Z,1.70
2023-03-30T15:22:07.410Z,1.60
2023-03-30T15:24:35.822Z,1.13
2023-03-30T15:27:04.448Z,1.70
2023-03-30T15:29:39.540Z,1.58
2023-03-30T15:32:20.398Z,1.48
2023-03-30T15:35:17.364Z,1.60
2023-03-30T15:37:55.032Z,1.80
2023-03-30T15:40:36.357Z,1.70
2023-03-30T15:43:22.332Z,1.40
2023-03-30T15:45:56.503Z,1.55
2023-03-30T15:48:26.039Z,1.75
2023-03-30T15:50:54.997Z,1.80
2023-03-30T15:53:41.713Z,1.20
2023-03-30T15:56:20.630Z,1.48
2023-03-30T15:58:49.100Z,1.50
2023-03-30T16:01:16.436Z,1.30
2023-03-30T16:03:58.439Z,1.75
2023-03-30T16:06:25.666Z,1.40
2023-03-30T16:08:59.400Z,1.70
2023-03-30T16:11:26.613Z,1.20
2023-03-30T16:14:07.506Z,1.83
2023-03-30T16:16:35.275Z,1.50
2023-03-30T16:19:02.467Z,1.20
2023-03-30T16:21:36.427Z,1.25
2023-03-30T16:24:10.551Z,1.33
2023-03-30T16:26:44.398Z,1.48
2023-03-30T16:29:16.022Z,1.63
2023-03-30T16:31:49.554Z,1.50
2023-03-30T16:34:16.799Z,1.58
2023-03-30T16:36:44.068Z,1.40
2023-03-30T16:39:37.576Z,1.50
2023-03-30T16:42:04.846Z,1.33
2023-03-30T16:44:32.280Z,1.33
2023-03-30T16:47:06.740Z,1.50
2023-03-30T16:49:34.037Z,1.48
2023-03-30T16:52:09.518Z,1.40
2023-03-30T16:54:36.687Z,1.40
2023-03-30T16:57:04.092Z,1.30
2023-03-30T16:59:39.440Z,1.83
2023-03-30T17:02:06.666Z,1.10
2023-03-30T17:04:40.687Z,1.25
2023-03-30T17:07:07.859Z,1.35
2023-03-30T17:09:34.981Z,1.40
2023-03-30T17:12:08.479Z,1.45
2023-03-30T17:14:35.894Z,1.08
2023-03-30T17:17:03.085Z,1.35
2023-03-30T17:19:36.367Z,1.65
2023-03-30T17:22:03.661Z,1.42
2023-03-30T17:24:37.468Z,1.35
2023-03-30T17:27:04.657Z,1.15
2023-03-30T17:29:38.391Z,1.48
2023-03-30T17:32:06.587Z,1.58
2023-03-30T17:34:40.517Z,1.38
2023-03-30T17:37:09.460Z,1.30
2023-03-30T17:39:36.607Z,1.42
2023-03-30T17:42:10.510Z,1.15
2023-03-30T17:44:45.353Z,1.20
2023-03-30T17:47:12.540Z,1.40
2023-03-30T17:49:40.472Z,1.30
2023-03-30T17:52:14.699Z,1.17
2023-03-30T17:54:43.011Z,1.50
2023-03-30T17:57:10.228Z,1.40
2023-03-30T17:59:43.500Z,1.30
2023-03-30T18:02:10.869Z,1.15
2023-03-30T18:04:38.242Z,1.30
2023-03-30T18:07:12.546Z,1.52
2023-03-30T18:09:39.733Z,1.35
2023-03-30T18:12:13.456Z,0.77
2023-03-30T18:14:47.494Z,1.40
2023-03-30T18:17:21.461Z,1.23
2023-03-30T18:19:48.704Z,1.20
2023-03-30T18:22:16.208Z,1.65
2023-03-30T18:27:17.754Z,1.27
2023-03-30T18:29:50.293Z,1.15
2023-03-30T18:32:29.177Z,1.08
2023-03-30T18:35:04.465Z,1.50
2023-03-30T18:37:38.524Z,1.70
2023-03-30T18:40:12.549Z,1.40
2023-03-30T18:42:51.447Z,1.23
2023-03-30T18:45:23.597Z,1.38
2023-03-30T18:47:50.890Z,1.20
2023-03-30T18:50:26.469Z,1.48
2023-03-30T18:52:53.620Z,1.40
2023-03-30T18:55:27.382Z,1.33
2023-03-30T18:57:54.560Z,1.33
2023-03-30T19:00:37.375Z,1.10
2023-03-30T19:03:04.773Z,1.45
2023-03-30T19:08:07.116Z,1.30
2023-03-30T19:13:07.404Z,1.20
2023-03-30T19:15:35.941Z,1.33
2023-03-30T19:18:10.817Z,1.40
2023-03-30T19:20:39.826Z,1.70
2023-03-30T19:23:07.118Z,1.23
2023-03-30T19:25:40.516Z,1.42
2023-03-30T19:28:08.662Z,1.50
2023-03-30T19:30:39.065Z,1.10
2023-03-30T19:33:14.395Z,1.45
2023-03-30T19:35:41.689Z,1.50
2023-03-30T19:38:09.015Z,1.08
2023-03-30T19:40:44.510Z,1.13
2023-03-30T19:43:11.757Z,1.42
2023-03-30T19:45:38.951Z,1.30
2023-03-30T19:48:12.497Z,1.33
2023-03-30T19:50:40.820Z,1.13
2023-03-30T19:53:15.456Z,0.73
2023-03-30T19:55:46.438Z,1.20
2023-03-30T19:58:13.800Z,1.35
2023-03-30T20:00:50.406Z,1.20
2023-03-30T20:03:17.733Z,1.60
2023-03-30T20:05:55.667Z,1.08
2023-03-30T20:08:24.702Z,1.33
2023-03-30T20:10:52.070Z,1.33
2023-03-30T20:13:28.560Z,1.75
2023-03-30T20:16:02.526Z,1.50
2023-03-30T20:18:39.373Z,1.50
2023-03-30T20:21:06.704Z,1.40
2023-03-30T20:23:34.263Z,1.33
2023-03-30T20:26:10.614Z,1.10
2023-03-30T20:28:37.996Z,1.50
2023-03-30T20:31:11.567Z,1.67
2023-03-30T20:33:39.005Z,1.08
2023-03-30T20:38:40.494Z,1.20
2023-03-30T20:41:11.467Z,1.30
2023-03-30T20:43:56.450Z,1.23
2023-03-30T20:46:25.955Z,1.40
2023-03-30T20:49:02.571Z,1.73
2023-03-30T20:51:29.798Z,1.38
2023-03-30T20:54:03.490Z,1.60
2023-03-30T20:56:37.393Z,1.25
2023-03-30T20:59:11.506Z,1.30
2023-03-30T21:01:43.387Z,1.33
2023-03-30T21:04:10.679Z,1.33
2023-03-30T21:06:44.622Z,1.30
2023-03-30T21:09:11.775Z,1.13
2023-03-30T21:11:46.544Z,1.85
2023-03-30T21:14:20.510Z,1.35
2023-03-30T21:16:55.551Z,1.20
2023-03-30T21:19:22.731Z,1.10
2023-03-30T21:21:50.393Z,1.52
2023-03-30T21:24:25.522Z,1.65
2023-03-30T21:26:52.679Z,1.60
2023-03-30T21:29:26.443Z,1.42
2023-03-30T21:31:53.662Z,1.60
2023-03-30T21:34:22.117Z,1.45
2023-03-30T21:36:55.682Z,1.40
2023-03-30T21:39:23.813Z,1.80
2023-03-30T21:41:57.473Z,1.80
2023-03-30T21:44:34.723Z,1.50
2023-03-30T21:47:08.656Z,1.40
2023-03-30T21:49:37.229Z,1.50
2023-03-30T21:52:04.660Z,1.70
2023-03-30T21:54:45.545Z,1.83
2023-03-30T21:57:12.813Z,1.52
2023-03-30T21:59:46.733Z,1.60
2023-03-30T22:02:15.231Z,1.33
2023-03-30T22:04:45.611Z,1.50
2023-03-30T22:07:19.452Z,1.83
2023-03-30T22:09:49.575Z,1.90
2023-03-30T22:12:24.654Z,1.40
2023-03-30T22:14:58.388Z,1.70
2023-03-30T22:17:41.824Z,1.60
2023-03-30T22:20:13.071Z,1.77
2023-03-30T22:22:40.193Z,1.98
2023-03-30T22:25:14.432Z,1.90
2023-03-30T22:27:41.724Z,1.52
2023-03-30T22:30:15.603Z,2.00
2023-03-30T22:32:42.903Z,1.70
2023-03-30T22:35:10.416Z,1.80
2023-03-30T22:40:11.834Z,1.73
2023-03-30T22:42:45.536Z,2.00
2023-03-30T22:45:12.954Z,1.90
2023-03-30T22:47:40.185Z,1.83
2023-03-30T22:50:14.539Z,1.60
2023-03-30T22:52:42.131Z,2.13
2023-03-30T22:57:42.788Z,1.80
2023-03-30T23:00:17.565Z,1.92
2023-03-30T23:02:44.796Z,1.60
2023-03-30T23:05:15.160Z,1.70
2023-03-30T23:07:50.504Z,1.80
2023-03-30T23:10:19.157Z,1.95
2023-03-30T23:13:00.517Z,1.92
2023-03-30T23:15:34.504Z,1.95
2023-03-30T23:18:08.735Z,1.90
2023-03-30T23:20:36.046Z,1.73
2023-03-30T23:23:03.160Z,1.73
2023-03-30T23:25:36.488Z,2.00
2023-03-30T23:28:05.346Z,2.17
2023-03-30T23:30:39.485Z,1.77
2023-03-30T23:33:06.789Z,1.95
2023-03-30T23:35:33.966Z,1.60
2023-03-30T23:38:09.554Z,2.03
2023-03-30T23:40:36.935Z,1.90
2023-03-30T23:43:10.541Z,2.03
2023-03-30T23:45:38.598Z,1.88
2023-03-30T23:48:12.611Z,1.60
2023-03-30T23:50:39.898Z,2.00
2023-03-30T23:53:07.083Z,1.88
2023-03-30T23:55:40.483Z,1.85
2023-03-30T23:58:07.651Z,2.00
